Overton, Nevada Weather observations

Data are for observation ending at time listed.
 Day   Time    Ave.   Ave.  Ave.  Vector   Max.   Stn.    Total    Solar   Ave.  
  of    of     Air    Rel.  Wind   Wind    Wind   Baro.  Precip.   Rad.    Soil  
Year   Day     Temp.  Hum.  Speed  Dir.    Gust   Pres.                    Temp. 
2015   (PST)    F      %     mph   deg.    mph     mb.     in.     W/m2     F   
------------------------------------------------------------------------------
  58   17:00   65.1    23    3.1   158      5.8   955.7    0.00      17    59.1
  58   17:10   64.8    24    2.7   151      5.5   955.6    0.00      11    59.1
  58   17:20   64.2    24    2.2   156      4.4   955.4    0.00      10    59.1
  58   17:30   63.7    25    2.0   142      4.2   955.2    0.00       5    59.0
  58   17:40   63.0    26    1.0   135      2.1   954.9    0.00       4    58.9
  58   17:50   62.5    27    1.4   138      2.5   954.8    0.00       0    58.7
  58   18:00   61.4    30    0.1   165      0.9   954.7    0.00       0    58.6
  58   18:10   59.9    33    0.9    86      1.9   954.5    0.00       0    58.5
  58   18:20   58.3    40    1.2    64      1.8   954.4    0.00       0    58.4
  58   18:30   56.6    44    0.5    74      1.4   954.3    0.00       0    58.1
  58   18:40   55.9    44    0.6   332      1.6   954.1    0.00       0    58.0
  58   18:50   55.3    47    0.8   319      1.5   954.0    0.00       0    57.8
  58   19:00   53.9    50    0.5   313      1.2   953.8    0.00       0    57.5
  58   19:10   52.9    53    0.8   304      2.6   953.7    0.00       0    57.3
  58   19:20   51.6    54    2.6   290      4.0   953.6    0.00       0    57.0
  58   19:30   52.7    50    2.3   281      3.9   953.4    0.00       0    56.8
  58   19:40   52.0    51    1.8   278      2.7   953.4    0.00       0    56.6
  58   19:50   52.6    50    2.0   288      3.6   953.3    0.00       0    56.3
  58   20:00   51.8    52    2.5   289      3.7   953.3    0.00       0    56.2
  58   20:10   49.9    58    1.8   319      2.9   953.3    0.00       0    55.9
  58   20:20   48.7    61    2.1   326      3.9   953.2    0.00       0    55.7
  58   20:30   49.4    59    2.0   296      3.6   953.0    0.00       0    55.5
  58   20:40   51.0    54    2.1   294      4.2   953.0    0.00       0    55.4
  58   20:50   50.1    58    1.4   322      2.3   953.0    0.00       0    55.2
  58   21:00   50.9    56    2.1   294      3.4   953.0    0.00       0    55.2
  58   21:10   51.0    58    1.1   305      2.6   953.0    0.00       0    55.1
  58   21:20   51.4    57    0.7   314      1.7   953.0    0.00       0    55.1
  58   21:30   50.9    65    2.7   328      5.6   952.9    0.00       0    55.1
  58   21:40   51.2    66    3.6   247      5.8   952.7    0.00       0    55.1
  58   21:50   52.1    70    2.7   153      6.4   952.6    0.01       0    55.0
  58   22:00   52.0    72    1.8   260      3.8   952.5    0.00       0    55.0
  58   22:10   52.3    71    1.8   187      3.5   952.6    0.00       0    55.0
  58   22:20   52.1    72    1.5    60      4.5   952.6    0.00       0    54.9
  58   22:30   50.9    77    0.3    72      1.4   952.7    0.00       0    54.8
  58   22:40   50.0    80    0.3    34      1.2   952.7    0.00       0    54.6
  58   22:50   49.9    82    0.3   203      1.1   952.6    0.00       0    54.6
  58   23:00   50.6    81    0.1   216      0.9   952.5    0.00       0    54.6
  58   23:10   49.7    82    0.5   354      2.3   952.5    0.00       0    54.5
  58   23:20   50.0    84    0.1   272      0.7   952.4    0.00       0    54.4
  58   23:30   49.9    84    0.1   213      0.7   952.3    0.00       0    54.3
  58   23:40   49.2    85    0.1   213      0.9   952.3    0.00       0    54.2
  58   23:50   48.1    86    0.4   322      1.8   952.3    0.00       0    54.0
  59    0:00   47.1    87    1.0   348      1.9   952.3    0.00       0    53.9
  59    0:10   46.8    87    0.9   316      1.8   952.2    0.00       0    53.7
  59    0:20   46.4    88    0.3   309      1.8   952.3    0.00       0    53.5
  59    0:30   47.4    89    0.8   192      1.6   952.3    0.00       0    53.4
  59    0:40   46.4    89    1.5   298      3.1   952.4    0.00       0    53.3
  59    0:50   46.3    89    0.1   304      1.6   952.4    0.00       0    53.1
  59    1:00   45.6    88    1.8   319      2.9   952.4    0.00       0    53.0
  59    1:10   45.5    87    0.1   315      0.7   952.5    0.00       0    53.0
  59    1:20   45.6    86    1.9   340      5.1   952.7    0.00       0    52.9
  59    1:30   46.0    86    1.8     8      4.5   952.9    0.00       0    52.8
  59    1:40   47.3    83    0.9   233      3.4   952.9    0.00       0    52.8
  59    1:50   48.1    79    1.9   262      3.6   953.0    0.00       0    52.8
  59    2:00   48.2    78    1.1   245      3.4   953.1    0.00       0    52.8
  59    2:10   48.3    78    1.3   301      2.3   953.3    0.00       0    52.8
  59    2:20   48.7    77    0.7   316      2.9   953.3    0.00       0    52.8
  59    2:30   48.5    78    2.0   333      3.5   953.3    0.00       0    52.8
  59    2:40   49.5    74    1.6   251      2.3   953.4    0.00       0    52.8
  59    2:50   50.4    70    1.1   263      2.6   953.4    0.00       0    52.8
  59    3:00   50.5    69    1.0   264      2.3   953.4    0.00       0    52.8
  59    3:10   50.6    69    0.4   307      1.8   953.5    0.00       0    52.9
  59    3:20   50.4    70    1.8   311      3.5   953.5    0.00       0    52.9
  59    3:30   50.0    70    2.8   308      4.7   953.5    0.00       0    52.8
  59    3:40   50.7    68    0.4   282      2.0   953.6    0.00       0    52.8
  59    3:50   50.6    68    1.9   259      3.5   953.7    0.00       0    52.8
  59    4:00   51.4    63    2.6   277      4.3   953.8    0.00       0    52.8
  59    4:10   51.3    65    3.5   302      5.4   953.8    0.00       0    52.7
  59    4:20   51.1    65    3.9   307      5.8   954.0    0.00       0    52.7
  59    4:30   51.6    66    4.6   315      7.5   954.2    0.00       0    52.6
  59    4:40   52.2    63    5.1   311      7.5   954.5    0.00       0    52.5
  59    4:50   51.7    66    4.6   328      7.6   954.6    0.00       0    52.4
  59    5:00   50.9    69    4.3   331      5.7   954.6    0.00       0    52.4
  59    5:10   51.2    68    3.6   307      5.8   954.6    0.00       0    52.3
  59    5:20   52.1    66    4.1   296      6.4   954.7    0.00       0    52.3
  59    5:30   51.6    67    3.8   302      5.4   954.8    0.00       0    52.3
  59    5:40   51.2    68    4.7   309      6.0   954.9    0.00       0    52.3
  59    5:50   51.2    67    3.3   294      6.6   955.1    0.00       0    52.2
  59    6:00   51.0    68    6.4   325      9.1   955.2    0.00       0    52.2
  59    6:10   51.2    67    4.3   299      6.7   955.3    0.00       0    52.1
  59    6:20   51.2    67    4.6   310      7.2   955.4    0.00       0    52.1
  59    6:30   51.2    68    4.1   319      6.1   955.5    0.00       0    52.1
  59    6:40   51.3    68    3.7   324      5.8   955.6    0.00       0    52.2
  59    6:50   51.4    68    3.6   333      5.6   955.7    0.00       8    52.2
  59    7:00   51.4    68    3.9   325      5.7   955.8    0.00      24    52.2
  59    7:10   51.4    69    3.9   336      5.1   956.0    0.00      44    52.2
  59    7:20   52.0    68    5.6   348      9.1   956.1    0.00      86    52.4
  59    7:30   53.0    65    6.3   338      8.3   956.3    0.00     108    52.5
  59    7:40   53.8    62    5.9   336      8.8   956.6    0.00     100    53.1
  59    7:50   53.6    63    7.5   324     10.8   956.9    0.00      60    53.7
  59    8:00   54.0    64    6.0   344      9.9   957.2    0.00     111    53.9
  59    8:10   53.6    64    7.7   350     11.6   957.4    0.00     177    54.1
  59    8:20   53.6    66    7.1   347     10.7   957.5    0.00     114    54.3
  59    8:30   53.9    65    6.8   344     10.1   957.7    0.00     188    54.5
  59    8:40   55.1    63    7.4   343     11.2   957.7    0.00      39    55.0
  59    8:50   55.6    62    7.7   352     10.5   957.9    0.00      67    55.7
  59    9:00   56.1    60    6.7   348      9.9   958.2    0.00     123    56.3
  59    9:10   56.8    58    5.0     5      8.5   958.3    0.00     308    56.9
  59    9:20   57.1    57    4.8   343      8.8   958.4    0.00     205    57.5
  59    9:30   56.6    57    3.6    12      6.9   958.5    0.00     121    57.7
  59    9:40   57.3    56    3.6     4      5.8   958.5    0.00     472    57.6
  59    9:50   58.7    53    3.3   359      6.8   958.6    0.00     129    58.3
  59   10:00   58.1    53    2.2    35      5.6   958.7    0.00       0    58.7
  59   10:10   57.3    58    5.4   330     10.2   958.8    0.00       0    58.5
  59   10:20   56.6    61    7.2   322     10.7   958.7    0.00       5    58.3
  59   10:30   56.3    62    7.0   310     10.7   958.5    0.00      79    58.1
  59   10:40   57.0    61    7.5   322     11.1   958.5    0.00     409    58.1
  59   10:50   57.3    59    7.5   323     10.4   958.5    0.00     338    58.1
  59   11:00   57.8    57    6.0   306      9.1   958.5    0.00     348    58.2
  59   11:10   58.2    56    6.4   310      8.9   958.5    0.00     398    58.5
  59   11:20   58.2    56    5.6   308      9.7   958.6    0.00     188    58.6
  59   11:30   58.6    55    5.0   307      8.3   958.6    0.00     230    58.7
  59   11:40   58.5    56    5.4   316      9.6   958.6    0.00     110    58.9
  59   11:50   59.2    54    4.5   327      7.7   958.6    0.00     305    58.9
  59   12:00   59.7    51    2.4    12      7.0   958.6    0.00     249    59.0
  59   12:10   60.4    49    3.1   332      6.8   958.5    0.00     165    59.1
  59   12:20   60.7    48    4.4   353      8.4   958.4    0.00     235    59.2
  59   12:30   61.2    47    6.7   327     11.4   958.5    0.00     347    59.3
  59   12:40   63.2    42    6.9   353     11.5   958.5    0.00     709    59.5
  59   12:50   63.4    41    4.4   328      9.3   958.5    0.00     318    59.6
  59   13:00   62.8    43    8.5   330     15.9   958.5    0.00     415    59.7
  59   13:10   62.8    40    8.2   327     14.0   958.6    0.00     605    59.8
  59   13:20   63.4    34    4.7    20     11.5   958.4    0.00     653    59.8
  59   13:30   65.3    29    8.7   223     16.1   958.5    0.00     490    60.0
  59   13:40   64.8    34    6.3   241     17.5   958.6    0.00     379    60.2
  59   13:50   66.1    21    9.8   195     17.0   958.5    0.00     471    60.2
  59   14:00   66.1    20   14.8   190     23.9   958.5    0.00     497    60.2
  59   14:10   65.4    19   15.0   187     24.0   958.5    0.00     408    60.2
  59   14:20   65.6    18   12.3   190     20.5   958.4    0.00     511    60.2
  59   14:30   66.0    18   11.7   204     20.1   958.3    0.00     554    60.2
  59   14:40   65.9    17   15.3   197     27.1   958.4    0.00     518    60.2
  59   14:50   65.9    18   11.5   187     21.2   958.5    0.00     354    60.3
  59   15:00   65.7    17   10.8   202     23.7   958.6    0.00     329    60.4
  59   15:10   65.4    18   14.5   195     22.4   958.7    0.00     384    60.4
  59   15:20   65.3    18   12.7   195     21.4   958.8    0.00     336    60.3
  59   15:30   65.3    18   11.9   197     20.9   958.9    0.00     269    60.4
  59   15:40   65.3    18   11.0   190     18.3   958.9    0.00     314    60.4
  59   15:50   65.1    18   11.4   205     18.1   959.0    0.00     171    60.4
  59   16:00   64.5    18   13.0   188     22.1   959.0    0.00      80    60.3
  59   16:10   64.2    19   11.1   189     18.2   958.9    0.00     103    60.3
  59   16:20   64.7    19   12.2   198     22.6   959.0    0.00     222    60.2
  59   16:30   64.9    19   10.4   195     15.6   959.1    0.00     184    60.2
  59   16:40   64.6    18   12.9   192     19.1   959.2    0.00     115    60.2
  59   16:50   64.4    19   10.8   192     18.9   959.3    0.00     108    60.1

Return to Overton, Nevada graphs page.


Western Regional Climate Center,wrcc@dri.edu